createdAt,value
2018-03-28T05:47:43.988Z,172
2018-03-28T05:48:44.984Z,168
2018-03-28T05:49:45.075Z,172
2018-03-28T05:50:44.859Z,172
2018-03-28T05:51:44.664Z,184
2018-03-28T05:52:44.667Z,196
2018-03-28T05:53:44.944Z,200
2018-03-28T05:54:44.931Z,212
2018-03-28T05:55:44.318Z,228
2018-03-28T05:56:44.908Z,252
2018-03-28T05:57:45.332Z,260
2018-03-28T05:58:45.609Z,264
2018-03-28T05:59:45.251Z,268
2018-03-28T06:00:44.871Z,272
2018-03-28T06:01:45.449Z,264
2018-03-28T06:02:45.270Z,256
2018-03-28T06:03:46.053Z,256
2018-03-28T06:04:45.509Z,268
2018-03-28T06:05:45.560Z,296
2018-03-28T06:06:45.569Z,324
2018-03-28T06:07:45.872Z,356
2018-03-28T06:08:45.586Z,360
2018-03-28T06:09:45.875Z,376
2018-03-28T06:10:45.374Z,388
2018-03-28T06:11:46.158Z,396
2018-03-28T06:12:46.285Z,392
2018-03-28T06:13:45.915Z,372
2018-03-28T06:14:45.951Z,368
2018-03-28T06:15:45.694Z,376
2018-03-28T06:16:53.445Z,380
2018-03-28T06:17:53.603Z,376
2018-03-28T06:18:53.499Z,372
2018-03-28T06:19:53.333Z,344
2018-03-28T06:20:53.562Z,360
2018-03-28T06:21:53.599Z,348
2018-03-28T06:22:54.237Z,348
2018-03-28T06:23:53.914Z,364
2018-03-28T06:24:54.137Z,364
2018-03-28T06:25:53.888Z,364
2018-03-28T06:26:53.890Z,388
2018-03-28T06:27:54.686Z,392
2018-03-28T06:28:55.340Z,368
2018-03-28T06:29:53.932Z,344
2018-03-28T06:30:54.216Z,324
2018-03-28T06:31:55.005Z,300
2018-03-28T06:32:55.159Z,308
2018-03-28T06:33:54.769Z,296
2018-03-28T06:34:54.831Z,316
2018-03-28T06:35:55.075Z,292
2018-03-28T06:36:55.090Z,288
2018-03-28T06:37:55.592Z,264
2018-03-28T06:38:55.366Z,260
2018-03-28T06:39:55.353Z,252
2018-03-28T06:40:55.715Z,272
2018-03-28T06:41:55.783Z,276
2018-03-28T06:42:55.732Z,248
2018-03-28T06:43:55.723Z,240
2018-03-28T06:44:55.732Z,268
2018-03-28T06:45:55.506Z,264
2018-03-28T06:46:55.240Z,228
2018-03-28T06:47:55.540Z,224
2018-03-28T06:48:55.843Z,220
2018-03-28T06:49:55.891Z,224
2018-03-28T06:50:55.862Z,244
2018-03-28T06:51:55.639Z,224
2018-03-28T06:52:55.631Z,236
2018-03-28T06:53:56.361Z,244
2018-03-28T06:54:56.160Z,244
2018-03-28T06:55:55.640Z,244
2018-03-28T06:56:55.905Z,236
2018-03-28T06:57:56.453Z,228
2018-03-28T06:58:56.442Z,244
2018-03-28T06:59:56.450Z,240
2018-03-28T07:00:56.601Z,224
2018-03-28T07:01:56.640Z,272
2018-03-28T07:02:56.413Z,296
2018-03-28T07:03:56.544Z,312
2018-03-28T07:04:56.653Z,336
2018-03-28T07:05:57.033Z,320
2018-03-28T07:06:57.186Z,296
2018-03-28T07:07:56.901Z,312
2018-03-28T07:08:56.757Z,316
2018-03-28T07:09:57.554Z,268
2018-03-28T07:10:57.963Z,284
2018-03-28T07:11:57.170Z,344
2018-03-28T07:12:57.773Z,364
2018-03-28T07:13:58.022Z,380
2018-03-28T07:14:57.509Z,384
2018-03-28T07:15:58.434Z,356
2018-03-28T07:16:58.338Z,376
2018-03-28T07:17:58.886Z,392
2018-03-28T07:18:57.829Z,392
2018-03-28T07:19:57.995Z,448
2018-03-28T07:20:58.665Z,436
2018-03-28T07:21:59.188Z,408
2018-03-28T07:22:59.335Z,440
2018-03-28T07:23:58.950Z,468
2018-03-28T07:24:58.366Z,452
2018-03-28T07:25:58.121Z,480
2018-03-28T07:26:58.275Z,508
2018-03-28T07:27:58.930Z,492
2018-03-28T07:28:58.819Z,480
2018-03-28T07:29:58.557Z,524
2018-03-28T07:30:58.859Z,476
2018-03-28T07:31:58.962Z,516
2018-03-28T07:32:59.373Z,604
2018-03-28T07:33:59.385Z,568
2018-03-28T07:34:59.781Z,556
2018-03-28T07:35:59.544Z,560
2018-03-28T07:36:59.843Z,532
2018-03-28T07:38:00.223Z,488
2018-03-28T07:39:00.249Z,528
2018-03-28T07:40:00.405Z,488
2018-03-28T07:40:59.886Z,472
2018-03-28T07:42:00.179Z,504
2018-03-28T07:43:00.299Z,484
2018-03-28T07:44:00.662Z,476
2018-03-28T07:45:01.112Z,476
2018-03-28T07:46:01.492Z,536
2018-03-28T07:47:01.275Z,504
2018-03-28T07:48:01.345Z,552
2018-03-28T07:49:01.286Z,500
2018-03-28T07:50:01.692Z,560
2018-03-28T07:51:00.980Z,556
2018-03-28T07:52:01.742Z,668
2018-03-28T07:53:01.482Z,600
2018-03-28T07:54:01.612Z,624
2018-03-28T07:55:02.264Z,580
2018-03-28T07:56:01.828Z,632
2018-03-28T07:57:02.307Z,620
2018-03-28T07:58:02.420Z,656
2018-03-28T07:59:02.872Z,692
2018-03-28T08:01:03.112Z,676
2018-03-28T08:02:03.005Z,684
2018-03-28T08:03:02.772Z,744
2018-03-28T08:04:03.447Z,804
2018-03-28T08:05:03.399Z,792
2018-03-28T08:06:03.089Z,724
2018-03-28T08:07:03.498Z,724
2018-03-28T08:08:03.194Z,752
2018-03-28T08:09:02.866Z,788
2018-03-28T08:10:03.162Z,816
2018-03-28T08:11:02.907Z,812
2018-03-28T08:12:03.203Z,940
2018-03-28T08:13:03.507Z,836
2018-03-28T08:14:04.091Z,932
2018-03-28T08:15:04.412Z,876
2018-03-28T08:16:03.845Z,928
2018-03-28T08:17:04.369Z,916
2018-03-28T08:18:04.338Z,1016
2018-03-28T08:19:04.290Z,1104
2018-03-28T08:20:04.354Z,1216
2018-03-28T08:21:04.866Z,1212
2018-03-28T08:22:04.701Z,1248
2018-03-28T08:23:05.398Z,1236
2018-03-28T08:24:05.338Z,1404
2018-03-28T08:25:05.624Z,1432
2018-03-28T08:26:06.228Z,1640
2018-03-28T08:27:06.263Z,1688
2018-03-28T08:28:05.970Z,2008
2018-03-28T08:29:05.689Z,2012
2018-03-28T08:30:06.536Z,1884
2018-03-28T08:31:06.268Z,1732
2018-03-28T08:32:06.266Z,1692
2018-03-28T08:33:06.512Z,1616
2018-03-28T08:34:06.721Z,1636
2018-03-28T08:35:06.771Z,1704
2018-03-28T08:36:06.997Z,1704
2018-03-28T08:37:07.012Z,1504
2018-03-28T08:38:07.552Z,1608
2018-03-28T08:39:07.258Z,1664
2018-03-28T08:40:07.566Z,1668
2018-03-28T08:41:07.308Z,1560
2018-03-28T08:42:07.603Z,1796
2018-03-28T08:43:07.617Z,1784
2018-03-28T08:44:07.632Z,1632
2018-03-28T08:45:07.434Z,1908
2018-03-28T08:46:07.440Z,1896
2018-03-28T08:47:07.441Z,1792
2018-03-28T08:48:07.429Z,1756
2018-03-28T08:49:08.010Z,1784
2018-03-28T08:50:07.728Z,1820
2018-03-28T08:51:08.269Z,1780
2018-03-28T08:52:08.321Z,1620
2018-03-28T08:53:08.300Z,1660
2018-03-28T08:54:08.937Z,1492
2018-03-28T08:55:08.331Z,1640
2018-03-28T08:56:08.963Z,1548
2018-03-28T08:57:08.681Z,1532
2018-03-28T08:58:08.982Z,1432
2018-03-28T08:59:08.463Z,1500
2018-03-28T09:00:12.268Z,1408
2018-03-28T09:01:09.897Z,1336
2018-03-28T09:02:11.784Z,1396
2018-03-28T09:03:11.845Z,1252
2018-03-28T09:04:10.681Z,1224
2018-03-28T09:05:11.108Z,1252
2018-03-28T09:06:10.672Z,1332
2018-03-28T09:07:10.873Z,1272
2018-03-28T09:08:11.409Z,1440
2018-03-28T09:09:10.946Z,1552
2018-03-28T09:10:10.910Z,1428
2018-03-28T09:11:11.185Z,1476
2018-03-28T09:12:11.654Z,1284
2018-03-28T09:13:11.424Z,1480
2018-03-28T09:14:11.940Z,1280
2018-03-28T09:15:12.227Z,1376
2018-03-28T09:16:11.942Z,1376
2018-03-28T09:17:12.184Z,1584
2018-03-28T09:18:11.472Z,1564
2018-03-28T09:19:11.760Z,1584
2018-03-28T09:20:12.372Z,1408
2018-03-28T09:21:12.026Z,1452
2018-03-28T09:22:12.136Z,1524
2018-03-28T09:23:11.771Z,1660
2018-03-28T09:24:12.298Z,1604
2018-03-28T09:25:12.768Z,1496
2018-03-28T09:26:12.680Z,1576
2018-03-28T09:27:13.082Z,1676
2018-03-28T09:28:13.466Z,1560
2018-03-28T09:29:13.847Z,1488
2018-03-28T09:30:13.528Z,1608
2018-03-28T09:31:14.002Z,1604
2018-03-28T09:32:13.770Z,1472
2018-03-28T09:33:13.773Z,1436
2018-03-28T09:34:14.603Z,1604
2018-03-28T09:35:13.797Z,1564
2018-03-28T09:36:14.367Z,1480
2018-03-28T09:37:14.518Z,1584
2018-03-28T09:38:14.661Z,1660
2018-03-28T09:39:14.992Z,1560
2018-03-28T09:40:14.975Z,1544
2018-03-28T09:41:14.811Z,1712
2018-03-28T09:42:15.378Z,1656
2018-03-28T09:43:15.532Z,1588
2018-03-28T09:44:15.452Z,1700
2018-03-28T09:45:15.443Z,1692
2018-03-28T09:46:15.867Z,1560
2018-03-28T09:47:16.252Z,1700
2018-03-28T09:48:16.667Z,1616
2018-03-28T09:49:17.037Z,1744
2018-03-28T09:50:17.061Z,1772
2018-03-28T09:51:17.084Z,1684
2018-03-28T09:52:16.860Z,1748
2018-03-28T09:53:16.977Z,1668
2018-03-28T09:54:17.726Z,1492
2018-03-28T09:55:18.388Z,1604
2018-03-28T09:56:18.263Z,1868
2018-03-28T09:57:18.410Z,1680
2018-03-28T09:58:18.176Z,1628
2018-03-28T09:59:19.496Z,1612
2018-03-28T10:00:19.143Z,1640
2018-03-28T10:01:18.367Z,1428
2018-03-28T10:02:19.166Z,1596
2018-03-28T10:03:19.359Z,1576
2018-03-28T10:04:19.476Z,1584
2018-03-28T10:05:19.555Z,1680
2018-03-28T10:06:19.967Z,1676
2018-03-28T10:07:20.061Z,1732
2018-03-28T10:08:20.688Z,1896
2018-03-28T10:09:20.603Z,1700
2018-03-28T10:10:20.478Z,2072
2018-03-28T10:11:20.864Z,1956
2018-03-28T10:12:20.365Z,2184
2018-03-28T10:13:21.172Z,2068
2018-03-28T10:14:21.009Z,2328
2018-03-28T10:15:20.770Z,2256
2018-03-28T10:16:21.602Z,2244
2018-03-28T10:17:21.331Z,2452
2018-03-28T10:18:21.745Z,2416
2018-03-28T10:19:21.840Z,2240
2018-03-28T10:20:22.475Z,2364
2018-03-28T10:21:23.369Z,2156
2018-03-28T10:22:23.161Z,2676
2018-03-28T10:23:23.164Z,2508
2018-03-28T10:24:23.536Z,2516
2018-03-28T10:25:23.302Z,2884
2018-03-28T10:26:23.726Z,2616
2018-03-28T10:27:24.380Z,2672
2018-03-28T10:28:24.404Z,2816
2018-03-28T10:29:24.161Z,2648
2018-03-28T10:30:24.530Z,2576
2018-03-28T10:31:24.544Z,2628
2018-03-28T10:32:24.573Z,2492
2018-03-28T10:33:24.592Z,2428
2018-03-28T10:34:24.606Z,2572
2018-03-28T10:35:24.341Z,2412
2018-03-28T10:36:24.745Z,2108
2018-03-28T10:37:24.850Z,2196
2018-03-28T10:38:24.382Z,2552
2018-03-28T10:39:25.190Z,2304
2018-03-28T10:40:25.295Z,2300
2018-03-28T10:41:25.227Z,2568
2018-03-28T10:42:25.343Z,2404
2018-03-28T10:43:26.012Z,2528
2018-03-28T10:44:26.125Z,2424
2018-03-28T10:45:26.398Z,2476
2018-03-28T10:46:26.287Z,2108
2018-03-28T10:47:26.918Z,2040
2018-03-28T10:48:27.286Z,2124
2018-03-28T10:49:27.041Z,2324
2018-03-28T10:50:27.163Z,2232
2018-03-28T10:51:27.543Z,2232
2018-03-28T10:52:27.912Z,2200
2018-03-28T10:53:28.571Z,2068
2018-03-28T10:54:28.336Z,2384
2018-03-28T10:55:28.467Z,2808
2018-03-28T10:56:29.114Z,2684
2018-03-28T10:57:29.133Z,2604
2018-03-28T10:58:29.144Z,2900
2018-03-28T10:59:28.906Z,2920
2018-03-28T11:00:28.791Z,2840
2018-03-28T11:01:29.656Z,2460
2018-03-28T11:02:29.689Z,2536
2018-03-28T11:03:29.697Z,2564
2018-03-28T11:04:29.213Z,2404
2018-03-28T11:05:29.310Z,2500
2018-03-28T11:06:29.973Z,2792
2018-03-28T11:07:30.208Z,2692
2018-03-28T11:08:30.219Z,2680
2018-03-28T11:09:29.715Z,2656
2018-03-28T11:10:30.423Z,2832
2018-03-28T11:11:30.161Z,2500
2018-03-28T11:12:29.926Z,2580
2018-03-28T11:13:30.516Z,2672
2018-03-28T11:14:30.268Z,2508
2018-03-28T11:15:30.327Z,3156
2018-03-28T11:16:30.361Z,3548
2018-03-28T11:17:30.362Z,3000
2018-03-28T11:18:30.667Z,2892
2018-03-28T11:19:30.411Z,3172
2018-03-28T11:20:30.212Z,3020
2018-03-28T11:21:30.569Z,2548
2018-03-28T11:22:31.247Z,3348
2018-03-28T11:23:31.184Z,3100
2018-03-28T11:24:31.205Z,3000
2018-03-28T11:25:31.229Z,2848
2018-03-28T11:26:31.526Z,2860
2018-03-28T11:27:30.743Z,2768
2018-03-28T11:28:31.308Z,2744
2018-03-28T11:29:31.613Z,2924
2018-03-28T11:30:31.358Z,2936
2018-03-28T11:31:31.373Z,2812
2018-03-28T11:32:31.668Z,2728
2018-03-28T11:33:31.419Z,2724
2018-03-28T11:34:31.726Z,2556
2018-03-28T11:35:31.754Z,2740
2018-03-28T11:36:31.794Z,2624
2018-03-28T11:37:32.388Z,2708
2018-03-28T11:38:32.408Z,2656
2018-03-28T11:39:31.621Z,2600
2018-03-28T11:40:31.904Z,2884
2018-03-28T11:41:32.224Z,2512
2018-03-28T11:42:32.537Z,2676
2018-03-28T11:43:32.852Z,2712
2018-03-28T11:44:32.936Z,2888
2018-03-28T11:45:32.882Z,2568
2018-03-28T11:46:32.638Z,2800
2018-03-28T11:47:32.974Z,2620
2018-03-28T11:48:32.720Z,3028
2018-03-28T11:49:32.735Z,2644
2018-03-28T11:50:32.793Z,2828
2018-03-28T11:51:33.087Z,2608
2018-03-28T11:52:32.838Z,2784
2018-03-28T11:53:32.865Z,2532
2018-03-28T11:54:32.603Z,2688
2018-03-28T11:55:32.908Z,2424
2018-03-28T11:56:33.469Z,2860
2018-03-28T11:57:32.967Z,2632
2018-03-28T11:58:33.306Z,2592
2018-03-28T11:59:33.352Z,2512
2018-03-28T12:00:33.954Z,2488
2018-03-28T12:01:34.336Z,2664
2018-03-28T12:02:33.727Z,2724
2018-03-28T12:03:33.973Z,2824
2018-03-28T12:04:33.990Z,2664
2018-03-28T12:05:33.740Z,2344
2018-03-28T12:06:33.980Z,2352
2018-03-28T12:07:34.267Z,2628
2018-03-28T12:08:34.294Z,2624
2018-03-28T12:09:34.305Z,2784
2018-03-28T12:10:34.057Z,3004
2018-03-28T12:11:34.077Z,2724
2018-03-28T12:12:34.639Z,3208
2018-03-28T12:13:34.114Z,2912
2018-03-28T12:14:34.374Z,2976
2018-03-28T12:15:34.698Z,3492
2018-03-28T12:16:34.746Z,3324
2018-03-28T12:17:34.201Z,3492
2018-03-28T12:18:35.022Z,3404
2018-03-28T12:19:34.982Z,3440
2018-03-28T12:20:34.561Z,3240
2018-03-28T12:21:35.032Z,2832
2018-03-28T12:22:34.834Z,3384
2018-03-28T12:23:34.879Z,3716
2018-03-28T12:24:34.607Z,3444
2018-03-28T12:25:34.962Z,3600
2018-03-28T12:26:35.211Z,3704
2018-03-28T12:27:35.175Z,3960
2018-03-28T12:28:34.945Z,4284
2018-03-28T12:29:34.990Z,3768
2018-03-28T12:30:35.106Z,3496
2018-03-28T12:31:35.584Z,3316
2018-03-28T12:32:35.028Z,3464
2018-03-28T12:33:35.456Z,3352
2018-03-28T12:34:35.009Z,3172
2018-03-28T12:35:35.773Z,2932
2018-03-28T12:36:35.268Z,2716
2018-03-28T12:37:36.024Z,2580
2018-03-28T12:38:35.999Z,2772
2018-03-28T12:39:35.848Z,2836
2018-03-28T12:40:35.679Z,2680
2018-03-28T12:41:35.811Z,2668
2018-03-28T12:42:35.611Z,2788
2018-03-28T12:43:35.790Z,3008
2018-03-28T12:44:35.948Z,2748
2018-03-28T12:45:36.391Z,2672
2018-03-28T12:46:35.827Z,2664
2018-03-28T12:47:36.683Z,2896
2018-03-28T12:48:36.881Z,2800
2018-03-28T12:49:36.687Z,2776
2018-03-28T12:50:36.679Z,2556
2018-03-28T12:51:37.329Z,2460
2018-03-28T12:52:37.071Z,2760
2018-03-28T12:53:37.083Z,2244
2018-03-28T12:54:37.532Z,2060
2018-03-28T12:55:38.071Z,2100
2018-03-28T12:56:38.097Z,2364
2018-03-28T12:57:38.132Z,2268
2018-03-28T12:58:38.161Z,2396
2018-03-28T12:59:37.904Z,2172
2018-03-28T13:00:38.415Z,2464
2018-03-28T13:01:37.950Z,2512
2018-03-28T13:02:38.330Z,2636
2018-03-28T13:03:38.259Z,2596
2018-03-28T13:04:38.240Z,2748
2018-03-28T13:05:38.504Z,3144
2018-03-28T13:06:38.562Z,3044
2018-03-28T13:07:37.994Z,3036
2018-03-28T13:08:38.773Z,2756
2018-03-28T13:09:38.521Z,3036
2018-03-28T13:10:39.274Z,2948
2018-03-28T13:11:39.042Z,2908
2018-03-28T13:12:38.808Z,2936
2018-03-28T13:13:39.049Z,3012
2018-03-28T13:14:38.622Z,3396
2018-03-28T13:15:38.895Z,2856
2018-03-28T13:16:39.922Z,3072
2018-03-28T13:17:39.860Z,2888
2018-03-28T13:18:39.754Z,2632
2018-03-28T13:19:40.022Z,2440
2018-03-28T13:20:39.569Z,3156
2018-03-28T13:21:40.079Z,2540
2018-03-28T13:22:40.110Z,2568
2018-03-28T13:23:40.115Z,2672
2018-03-28T13:24:39.900Z,2456
2018-03-28T13:25:39.912Z,2676
2018-03-28T13:26:40.125Z,2480
2018-03-28T13:27:40.223Z,2656
2018-03-28T13:28:40.176Z,2520
2018-03-28T13:29:40.753Z,2392
2018-03-28T13:30:40.963Z,2652
2018-03-28T13:31:40.593Z,2564
2018-03-28T13:32:40.364Z,2868
2018-03-28T13:33:41.331Z,3180
2018-03-28T13:34:40.822Z,3288
2018-03-28T13:35:41.571Z,3240
2018-03-28T13:36:41.090Z,3604
2018-03-28T13:37:41.688Z,3712
2018-03-28T13:38:41.691Z,3984
2018-03-28T13:39:41.238Z,3768
2018-03-28T13:40:41.989Z,3208
2018-03-28T13:41:42.011Z,3104
2018-03-28T13:42:41.483Z,3420
2018-03-28T13:43:42.235Z,3592
2018-03-28T13:44:42.055Z,3572
2018-03-28T13:45:42.040Z,4428
2018-03-28T13:46:42.117Z,4840
2018-03-28T13:47:42.026Z,4296
2018-03-28T13:48:42.709Z,3400
2018-03-28T13:49:42.060Z,3260
2018-03-28T13:50:43.127Z,3160
2018-03-28T13:51:42.624Z,2476
2018-03-28T13:52:42.712Z,2824
2018-03-28T13:53:43.281Z,2684
2018-03-28T13:54:42.680Z,2400
2018-03-28T13:55:43.307Z,2532
2018-03-28T13:56:43.228Z,2520
2018-03-28T13:57:43.507Z,2452
2018-03-28T13:58:44.025Z,2408
2018-03-28T13:59:44.249Z,2256
2018-03-28T14:00:44.468Z,2184
2018-03-28T14:01:44.636Z,2068
2018-03-28T14:02:45.027Z,2416
2018-03-28T14:03:45.444Z,2268
2018-03-28T14:04:45.443Z,2160
2018-03-28T14:05:45.391Z,2532
2018-03-28T14:06:45.634Z,2592
2018-03-28T14:07:45.632Z,2232
2018-03-28T14:08:45.508Z,2076
2018-03-28T14:09:45.898Z,2320
2018-03-28T14:10:46.293Z,2232
2018-03-28T14:11:46.950Z,2088
2018-03-28T14:12:47.057Z,2048
2018-03-28T14:13:47.081Z,2156
2018-03-28T14:14:46.858Z,2272
2018-03-28T14:15:47.259Z,2232
2018-03-28T14:16:47.608Z,2208
2018-03-28T14:17:47.107Z,2264
2018-03-28T14:18:47.691Z,2128
2018-03-28T14:19:47.189Z,2020
2018-03-28T14:20:47.421Z,2180
2018-03-28T14:21:47.642Z,2224
2018-03-28T14:22:47.649Z,2108
2018-03-28T14:23:47.804Z,2084
2018-03-28T14:24:47.912Z,1932
2018-03-28T14:25:48.194Z,1828
2018-03-28T14:26:48.609Z,2028
2018-03-28T14:27:48.730Z,2264
2018-03-28T14:28:48.784Z,1868
2018-03-28T14:29:49.159Z,1916
2018-03-28T14:30:49.385Z,1800
2018-03-28T14:31:49.567Z,1600
2018-03-28T14:32:50.193Z,1776
2018-03-28T14:33:50.234Z,1416
2018-03-28T14:34:50.127Z,1560
2018-03-28T14:35:50.412Z,1456
2018-03-28T14:36:50.846Z,1768
2018-03-28T14:37:50.324Z,2076
2018-03-28T14:38:50.699Z,1936
2018-03-28T14:39:51.087Z,2280
2018-03-28T14:40:51.194Z,1904
2018-03-28T14:41:51.580Z,2084
2018-03-28T14:43:02.015Z,1900
2018-03-28T14:43:51.364Z,1688
2018-03-28T14:44:51.464Z,1744
2018-03-28T14:45:50.971Z,1492
2018-03-28T14:46:51.795Z,1796
2018-03-28T14:47:51.135Z,1696
2018-03-28T14:48:51.942Z,1808
2018-03-28T14:49:51.966Z,1756
2018-03-28T14:50:51.738Z,1652
2018-03-28T14:51:51.942Z,1684
2018-03-28T14:52:52.135Z,1672
2018-03-28T14:53:52.455Z,1504
2018-03-28T14:54:52.573Z,1604
2018-03-28T14:55:53.232Z,1440
2018-03-28T14:56:53.342Z,1372
2018-03-28T14:57:53.642Z,1440
2018-03-28T14:58:54.050Z,1304
2018-03-28T14:59:53.891Z,1188
2018-03-28T15:00:53.978Z,1356
2018-03-28T15:01:54.552Z,1480
2018-03-28T15:02:54.859Z,1500
2018-03-28T15:03:54.312Z,1508
2018-03-28T15:04:54.639Z,1544
2018-03-28T15:05:54.640Z,1560
2018-03-28T15:06:54.317Z,1504
2018-03-28T15:07:54.842Z,1564
2018-03-28T15:08:54.884Z,1496
2018-03-28T15:09:55.171Z,1360
2018-03-28T15:10:55.180Z,1204
2018-03-28T15:11:54.948Z,1228
2018-03-28T15:12:54.714Z,1144
2018-03-28T15:13:54.976Z,1176
2018-03-28T15:14:55.492Z,1012
2018-03-28T15:15:55.476Z,1024
2018-03-28T15:16:55.741Z,1100
2018-03-28T15:17:55.721Z,1040
2018-03-28T15:18:55.969Z,988
2018-03-28T15:19:56.491Z,940
2018-03-28T15:20:55.706Z,876
2018-03-28T15:21:56.640Z,744
2018-03-28T15:22:56.369Z,744
2018-03-28T15:23:56.878Z,808
2018-03-28T15:24:56.916Z,844
2018-03-28T15:25:57.162Z,784
2018-03-28T15:26:56.684Z,856
2018-03-28T15:27:56.967Z,880
2018-03-28T15:28:57.305Z,836
2018-03-28T15:29:57.301Z,936
2018-03-28T15:30:57.025Z,868
2018-03-28T15:31:57.313Z,848
2018-03-28T15:32:57.042Z,796
2018-03-28T15:33:57.328Z,828
2018-03-28T15:34:57.333Z,864
2018-03-28T15:35:57.649Z,720
2018-03-28T15:36:57.633Z,760
2018-03-28T15:37:58.007Z,716
2018-03-28T15:38:57.736Z,672
2018-03-28T15:39:57.735Z,656
2018-03-28T15:40:57.802Z,668
2018-03-28T15:41:57.504Z,640
2018-03-28T15:42:57.553Z,624
2018-03-28T15:43:57.284Z,668
2018-03-28T15:44:57.780Z,676
2018-03-28T15:45:58.287Z,692
2018-03-28T15:46:58.007Z,740
2018-03-28T15:47:58.333Z,732
2018-03-28T15:48:58.622Z,728
2018-03-28T15:49:58.371Z,776
2018-03-28T15:50:58.110Z,780
2018-03-28T15:51:57.950Z,820
2018-03-28T15:52:58.449Z,860
2018-03-28T15:53:58.944Z,876
2018-03-28T15:54:58.174Z,864
2018-03-28T15:55:58.608Z,856
2018-03-28T15:56:58.378Z,828
2018-03-28T15:57:58.054Z,852
2018-03-28T15:58:58.722Z,832
2018-03-28T15:59:58.634Z,824
2018-03-28T16:00:58.447Z,768
2018-03-28T16:01:58.567Z,844
2018-03-28T16:02:59.328Z,764
2018-03-28T16:03:59.288Z,712
2018-03-28T16:04:59.199Z,660
2018-03-28T16:05:58.900Z,696
2018-03-28T16:06:58.968Z,632
2018-03-28T16:07:59.388Z,652
2018-03-28T16:08:59.846Z,644
2018-03-28T16:10:00.142Z,632
2018-03-28T16:11:01.633Z,604
2018-03-28T16:11:59.584Z,580
2018-03-28T16:12:59.986Z,556
2018-03-28T16:13:59.517Z,568
2018-03-28T16:14:59.907Z,548
2018-03-28T16:16:00.910Z,532
2018-03-28T16:16:59.826Z,532
2018-03-28T16:18:00.081Z,472
2018-03-28T16:19:02.683Z,460
2018-03-28T16:19:59.282Z,448
2018-03-28T16:21:00.349Z,404
2018-03-28T16:22:00.340Z,408
2018-03-28T16:22:59.680Z,400
2018-03-28T16:24:00.350Z,388
2018-03-28T16:25:01.383Z,380
2018-03-28T16:26:00.660Z,376
2018-03-28T16:27:01.054Z,376
2018-03-28T16:28:00.690Z,352
2018-03-28T16:29:01.009Z,328
2018-03-28T16:30:00.409Z,332
2018-03-28T16:31:00.890Z,336
2018-03-28T16:31:59.838Z,368
2018-03-28T16:33:00.029Z,336
2018-03-28T16:34:01.379Z,312
2018-03-28T16:35:02.153Z,316
2018-03-28T16:36:00.799Z,328
2018-03-28T16:37:02.230Z,324
2018-03-28T16:38:01.169Z,324
2018-03-28T16:39:01.664Z,280
2018-03-28T16:40:01.482Z,272
2018-03-28T16:41:02.304Z,248
2018-03-28T16:42:01.302Z,264
2018-03-28T16:43:01.193Z,220
2018-03-28T16:44:01.510Z,240
2018-03-28T16:45:00.575Z,228
2018-03-28T16:46:00.904Z,232
2018-03-28T16:47:02.136Z,236
2018-03-28T16:48:02.624Z,236
2018-03-28T16:49:01.843Z,228
2018-03-28T16:50:04.374Z,212
2018-03-28T16:51:03.670Z,232
2018-03-28T16:52:03.582Z,216
2018-03-28T16:53:02.931Z,212
2018-03-28T16:54:02.510Z,208
2018-03-28T16:55:03.229Z,212
2018-03-28T16:56:02.240Z,184
2018-03-28T16:57:01.929Z,180
2018-03-28T16:58:03.815Z,148
2018-03-28T16:59:03.808Z,140
2018-03-28T17:00:10.227Z,132
2018-03-28T17:01:02.847Z,128
2018-03-28T17:02:02.694Z,128
2018-03-28T17:03:03.265Z,116
2018-03-28T17:04:02.978Z,116
2018-03-28T17:05:03.481Z,108
2018-03-28T17:06:03.684Z,104
2018-03-28T17:07:03.450Z,96
2018-03-28T17:08:03.847Z,92
2018-03-28T17:09:03.477Z,76
2018-03-28T17:10:04.235Z,68
2018-03-28T17:11:03.718Z,72
2018-03-28T17:12:03.844Z,64
2018-03-28T17:13:03.968Z,60
2018-03-28T17:14:04.673Z,60
2018-03-28T17:15:04.372Z,52
2018-03-28T17:16:04.495Z,52
2018-03-28T17:17:04.323Z,48
2018-03-28T17:18:04.465Z,44
2018-03-28T17:19:05.169Z,40
2018-03-28T17:20:05.290Z,36
2018-03-28T17:21:05.317Z,36
2018-03-28T17:22:05.453Z,32
2018-03-28T17:23:05.487Z,28
2018-03-28T17:24:06.031Z,24
2018-03-28T17:25:06.103Z,24
2018-03-28T17:26:06.045Z,20
2018-03-28T17:27:05.850Z,20
2018-03-28T17:28:06.499Z,16
2018-03-28T17:29:06.524Z,20
2018-03-28T17:30:06.786Z,16
2018-03-28T17:31:06.684Z,12
2018-03-28T17:32:06.968Z,12
2018-03-28T17:33:06.935Z,16
2018-03-28T17:34:07.376Z,12
2018-03-28T17:35:07.784Z,12
2018-03-28T17:36:08.002Z,12
2018-03-28T17:37:07.873Z,8
2018-03-28T17:38:08.505Z,12
2018-03-28T17:39:08.653Z,8
2018-03-28T17:40:08.604Z,8
2018-03-28T17:41:09.039Z,4
2018-03-28T17:42:09.162Z,4
2018-03-28T17:43:09.584Z,4
2018-03-28T17:44:10.238Z,8
2018-03-28T17:45:10.178Z,4
2018-03-28T17:46:10.661Z,4
2018-03-28T17:47:10.419Z,4
2018-03-28T17:48:10.528Z,4
2018-03-28T17:49:10.363Z,4
2018-03-28T17:50:10.389Z,0
2018-03-28T17:51:10.950Z,0
2018-03-28T17:52:10.898Z,0
2018-03-28T17:53:11.275Z,4
2018-03-28T17:54:11.674Z,4
2018-03-28T17:55:12.393Z,0
2018-03-28T17:56:12.247Z,0
2018-03-28T17:57:13.032Z,0
2018-03-28T17:58:12.936Z,0
2018-03-28T17:59:13.205Z,0
2018-03-28T18:00:20.002Z,0
2018-03-28T18:01:19.396Z,0
2018-03-28T18:02:19.809Z,0
2018-03-28T18:03:19.983Z,0
2018-03-28T18:04:20.003Z,0
2018-03-28T18:05:20.164Z,0
2018-03-28T18:06:19.814Z,0
2018-03-28T18:07:19.304Z,0
2018-03-28T18:08:20.675Z,0
2018-03-28T18:09:20.523Z,0
2018-03-28T18:10:20.295Z,0
2018-03-28T18:11:21.086Z,0
2018-03-28T18:12:21.035Z,0
2018-03-28T18:13:21.198Z,0
2018-03-28T18:14:21.094Z,0
2018-03-28T18:15:21.549Z,0
2018-03-28T18:16:22.107Z,0
2018-03-28T18:17:22.033Z,0
2018-03-28T18:18:21.946Z,0
2018-03-28T18:19:22.668Z,0
2018-03-28T18:20:22.825Z,0
2018-03-28T18:21:23.076Z,0
2018-03-28T18:22:23.042Z,0
2018-03-28T18:23:23.495Z,0
2018-03-28T18:24:24.211Z,0
2018-03-28T18:25:23.969Z,0
2018-03-28T18:26:24.414Z,0
2018-03-28T18:27:24.658Z,0
2018-03-28T18:28:24.351Z,0
2018-03-28T18:29:24.653Z,0
2018-03-28T18:30:25.338Z,0
2018-03-28T18:31:25.797Z,0
2018-03-28T18:32:25.821Z,0
2018-03-28T18:33:25.602Z,0
2018-03-28T18:34:25.630Z,0
2018-03-28T18:35:25.901Z,0
2018-03-28T18:36:25.845Z,0
2018-03-28T18:37:26.563Z,0
2018-03-28T18:38:26.761Z,0
2018-03-28T18:39:27.235Z,0
2018-03-28T18:40:27.711Z,0
2018-03-28T18:41:27.603Z,0
2018-03-28T18:42:27.877Z,0
2018-03-28T18:43:28.317Z,0
2018-03-28T18:44:28.207Z,0
2018-03-28T18:45:28.636Z,0
2018-03-28T18:46:28.406Z,0
2018-03-28T18:47:28.302Z,0
2018-03-28T18:48:28.856Z,0
2018-03-28T18:49:28.637Z,0
2018-03-28T18:50:28.644Z,0
2018-03-28T18:51:28.304Z,0
2018-03-28T18:52:29.158Z,0
2018-03-28T18:53:29.174Z,0
2018-03-28T18:54:29.620Z,0
2018-03-28T18:55:29.761Z,0
2018-03-28T18:56:29.665Z,0
2018-03-28T18:57:29.429Z,0
2018-03-28T18:58:29.384Z,0
2018-03-28T18:59:29.663Z,0
2018-03-28T19:00:29.722Z,0
2018-03-28T19:01:29.475Z,0
2018-03-28T19:02:29.969Z,0
2018-03-28T19:03:30.009Z,0
2018-03-28T19:04:29.686Z,0
2018-03-28T19:05:30.522Z,0
2018-03-28T19:06:30.539Z,0
2018-03-28T19:07:30.551Z,0
2018-03-28T19:08:30.335Z,0
2018-03-28T19:09:30.609Z,0
2018-03-28T19:10:30.620Z,0
2018-03-28T19:11:30.385Z,0
2018-03-28T19:12:30.411Z,0
2018-03-28T19:13:30.436Z,0
2018-03-28T19:14:30.719Z,0
2018-03-28T19:15:30.786Z,0
2018-03-28T19:16:30.756Z,0
2018-03-28T19:17:30.512Z,0
2018-03-28T19:18:30.773Z,0
2018-03-28T19:19:31.063Z,0
2018-03-28T19:20:30.544Z,0
2018-03-28T19:21:31.058Z,0
2018-03-28T19:22:31.056Z,0
2018-03-28T19:23:31.362Z,0
2018-03-28T19:24:31.104Z,0
2018-03-28T19:25:31.393Z,0
2018-03-28T19:26:31.423Z,0
2018-03-28T19:27:31.449Z,0
2018-03-28T19:28:31.476Z,0
2018-03-28T19:29:31.235Z,0
2018-03-28T19:30:31.506Z,0